createdAt,value
2023-03-30T00:00:46.657Z,6.98
2023-03-30T00:05:51.757Z,6.99
2023-03-30T00:11:00.880Z,6.99
2023-03-30T00:16:04.559Z,6.97
2023-03-30T00:21:09.561Z,6.92
2023-03-30T00:26:11.347Z,6.88
2023-03-30T00:31:13.274Z,6.91
2023-03-30T00:36:17.184Z,6.98
2023-03-30T00:41:19.121Z,6.94
2023-03-30T00:46:22.948Z,6.85
2023-03-30T00:51:28.216Z,6.77
2023-03-30T00:56:31.369Z,6.78
2023-03-30T01:01:39.337Z,6.75
2023-03-30T01:06:43.543Z,6.71
2023-03-30T01:11:46.252Z,6.70
2023-03-30T01:17:23.169Z,6.80
2023-03-30T01:22:47.196Z,6.76
2023-03-30T01:28:14.688Z,6.82
2023-03-30T01:33:28.615Z,7.05
2023-03-30T01:38:53.228Z,6.97
2023-03-30T01:44:21.531Z,7.06
2023-03-30T01:49:37.115Z,7.25
2023-03-30T01:54:45.902Z,7.55
2023-03-30T02:00:00.202Z,7.80
2023-03-30T02:05:06.202Z,7.81
2023-03-30T02:10:12.155Z,7.78
2023-03-30T02:15:16.072Z,7.92
2023-03-30T02:20:19.034Z,8.01
2023-03-30T02:25:21.216Z,7.89
2023-03-30T02:30:23.264Z,7.70
2023-03-30T02:35:56.001Z,7.52
2023-03-30T02:41:16.169Z,7.37
2023-03-30T02:46:39.449Z,7.24
2023-03-30T02:52:17.204Z,7.20
2023-03-30T02:57:24.361Z,7.15
2023-03-30T03:02:38.010Z,7.35
2023-03-30T03:07:53.766Z,6.99
2023-03-30T03:12:55.671Z,6.83
2023-03-30T03:17:58.610Z,6.99
2023-03-30T03:23:00.912Z,7.27
2023-03-30T03:28:05.845Z,7.48
2023-03-30T03:33:16.134Z,7.42
2023-03-30T03:38:25.310Z,8.13
2023-03-30T03:43:27.602Z,8.45
2023-03-30T03:48:29.583Z,8.65
2023-03-30T03:53:32.024Z,8.76
2023-03-30T03:58:37.516Z,8.65
2023-03-30T04:03:39.315Z,8.46
2023-03-30T04:08:41.686Z,8.61
2023-03-30T04:13:54.483Z,8.78
2023-03-30T04:19:31.556Z,8.98
2023-03-30T04:24:52.280Z,9.20
2023-03-30T04:30:14.279Z,9.30
2023-03-30T04:35:48.611Z,9.51
2023-03-30T04:41:19.534Z,9.79
2023-03-30T04:46:33.806Z,9.94
2023-03-30T04:52:04.143Z,9.96
2023-03-30T04:57:14.193Z,9.95
2023-03-30T05:02:45.587Z,9.98
2023-03-30T05:07:53.976Z,10.08
2023-03-30T05:13:17.489Z,10.22
2023-03-30T05:18:29.098Z,10.39
2023-03-30T05:23:57.586Z,10.47
2023-03-30T05:29:31.901Z,10.48
2023-03-30T05:34:52.223Z,10.52
2023-03-30T05:40:18.352Z,10.65
2023-03-30T05:45:49.920Z,10.65
2023-03-30T05:51:27.423Z,10.27
2023-03-30T05:56:52.822Z,10.00
2023-03-30T06:02:15.284Z,9.80
2023-03-30T06:07:18.117Z,9.97
2023-03-30T06:12:20.478Z,10.14
2023-03-30T06:17:22.427Z,10.04
2023-03-30T06:22:24.437Z,9.69
2023-03-30T06:27:56.254Z,9.51
2023-03-30T06:32:59.257Z,9.44
2023-03-30T06:38:23.350Z,9.37
2023-03-30T06:43:27.556Z,9.64
2023-03-30T06:48:55.509Z,9.67
2023-03-30T06:54:20.154Z,9.71
2023-03-30T06:59:34.314Z,9.98
2023-03-30T07:05:02.425Z,10.13
2023-03-30T07:10:12.123Z,10.14
2023-03-30T07:15:15.345Z,10.55
2023-03-30T07:20:17.360Z,11.16
2023-03-30T07:25:42.287Z,11.90
2023-03-30T07:30:49.172Z,12.13
2023-03-30T07:35:53.242Z,12.37
2023-03-30T07:40:58.961Z,12.78
2023-03-30T07:46:03.431Z,13.05
2023-03-30T07:51:13.653Z,13.29
2023-03-30T07:56:42.949Z,13.29
2023-03-30T08:01:46.577Z,13.13
2023-03-30T08:07:12.643Z,12.85
2023-03-30T08:12:14.589Z,13.00
2023-03-30T08:17:16.527Z,13.19
2023-03-30T08:22:18.501Z,13.10
2023-03-30T08:27:20.371Z,12.93
2023-03-30T08:32:22.225Z,12.44
2023-03-30T08:37:25.140Z,11.80
2023-03-30T08:42:43.366Z,11.28
2023-03-30T08:47:49.422Z,11.16
2023-03-30T08:52:52.689Z,10.96
2023-03-30T08:58:20.172Z,10.80
2023-03-30T09:03:27.892Z,10.70
2023-03-30T09:08:32.959Z,10.60
2023-03-30T09:13:37.954Z,10.43
2023-03-30T09:18:43.924Z,10.31
2023-03-30T09:23:46.288Z,10.26
2023-03-30T09:29:03.837Z,10.21
2023-03-30T09:34:09.294Z,10.19
2023-03-30T09:39:24.302Z,10.31
2023-03-30T09:44:39.068Z,10.32
2023-03-30T09:49:40.912Z,10.37
2023-03-30T09:54:42.766Z,10.38
2023-03-30T09:59:45.857Z,10.37
2023-03-30T10:04:53.780Z,10.47
2023-03-30T10:09:58.008Z,10.60
2023-03-30T10:15:04.346Z,10.53
2023-03-30T10:20:23.963Z,10.52
2023-03-30T10:25:32.818Z,10.66
2023-03-30T10:30:35.903Z,11.15
2023-03-30T10:35:38.678Z,11.57
2023-03-30T10:40:44.051Z,11.86
2023-03-30T10:45:48.351Z,12.25
2023-03-30T10:51:01.493Z,12.22
2023-03-30T10:56:09.393Z,12.17
2023-03-30T11:01:20.891Z,12.28
2023-03-30T11:06:32.834Z,12.44
2023-03-30T11:11:49.107Z,12.32
2023-03-30T11:17:09.031Z,12.30
2023-03-30T11:22:57.460Z,12.45
2023-03-30T11:28:20.963Z,12.78
2023-03-30T11:33:33.747Z,13.61
2023-03-30T11:38:49.776Z,13.98
2023-03-30T11:43:56.047Z,14.15
2023-03-30T11:49:05.022Z,14.32
2023-03-30T11:54:30.997Z,14.48
2023-03-30T12:00:14.697Z,15.54
2023-03-30T12:05:30.970Z,15.78
2023-03-30T12:10:32.775Z,15.99
2023-03-30T12:15:49.071Z,18.05
2023-03-30T12:20:54.168Z,17.81
2023-03-30T12:26:14.588Z,17.26
2023-03-30T12:31:16.599Z,18.08
2023-03-30T12:36:38.126Z,17.36
2023-03-30T12:41:48.860Z,18.79
2023-03-30T12:47:12.213Z,17.93
2023-03-30T12:52:23.676Z,15.86
2023-03-30T12:57:50.087Z,15.34
2023-03-30T13:03:16.150Z,14.91
2023-03-30T13:08:35.916Z,15.22
2023-03-30T13:13:57.559Z,16.91
2023-03-30T13:19:14.813Z,16.97
2023-03-30T13:24:35.992Z,17.81
2023-03-30T13:29:38.033Z,16.75
2023-03-30T13:35:06.971Z,17.67
2023-03-30T13:40:21.821Z,15.72
2023-03-30T13:45:46.712Z,15.69
2023-03-30T13:50:56.223Z,15.33
2023-03-30T13:55:58.167Z,15.31
2023-03-30T14:01:08.394Z,15.22
2023-03-30T14:06:13.583Z,15.64
2023-03-30T14:11:21.877Z,16.10
2023-03-30T14:16:28.903Z,15.57
2023-03-30T14:21:33.372Z,15.04
2023-03-30T14:26:41.110Z,15.16
2023-03-30T14:31:51.047Z,15.13
2023-03-30T14:37:07.782Z,14.66
2023-03-30T14:42:16.837Z,14.41
2023-03-30T14:47:24.459Z,15.27
2023-03-30T14:52:42.010Z,15.12
2023-03-30T14:57:44.298Z,14.59
2023-03-30T15:02:56.874Z,14.31
2023-03-30T15:07:58.984Z,13.39
2023-03-30T15:13:02.686Z,11.43
2023-03-30T15:18:05.365Z,8.67
2023-03-30T15:23:11.799Z,8.48
2023-03-30T15:28:19.485Z,8.55
2023-03-30T15:33:36.392Z,8.68
2023-03-30T15:38:49.037Z,8.65
2023-03-30T15:44:24.691Z,8.58
2023-03-30T15:49:49.288Z,8.49
2023-03-30T15:54:55.653Z,8.43
2023-03-30T16:00:01.927Z,8.39
2023-03-30T16:05:16.424Z,8.38
2023-03-30T16:10:21.554Z,8.52
2023-03-30T16:15:26.175Z,8.58
2023-03-30T16:20:30.540Z,8.61
2023-03-30T16:25:44.024Z,8.70
2023-03-30T16:30:48.914Z,8.80
2023-03-30T16:35:50.727Z,8.83
2023-03-30T16:40:56.353Z,8.94
2023-03-30T16:45:58.352Z,9.14
2023-03-30T16:51:00.369Z,9.24
2023-03-30T16:56:02.443Z,9.30
2023-03-30T17:01:04.771Z,9.29
2023-03-30T17:06:07.620Z,9.18
2023-03-30T17:11:13.514Z,9.09
2023-03-30T17:16:15.881Z,9.02
2023-03-30T17:21:17.750Z,8.99
2023-03-30T17:26:20.084Z,8.99
2023-03-30T17:31:22.747Z,8.93
2023-03-30T17:36:26.621Z,8.89
2023-03-30T17:41:28.840Z,8.77
2023-03-30T17:46:32.522Z,8.61
2023-03-30T17:51:34.389Z,8.43
2023-03-30T17:56:36.248Z,8.32
2023-03-30T18:01:39.197Z,8.22
2023-03-30T18:06:41.763Z,8.18
2023-03-30T18:11:44.362Z,8.10
2023-03-30T18:16:46.259Z,8.04
2023-03-30T18:21:48.060Z,7.95
2023-03-30T18:26:49.884Z,7.93
2023-03-30T18:31:51.716Z,7.83
2023-03-30T18:36:53.510Z,7.81
2023-03-30T18:41:55.383Z,7.72
2023-03-30T18:46:57.162Z,7.68
2023-03-30T18:51:58.942Z,7.65
2023-03-30T18:57:00.807Z,7.61
2023-03-30T19:02:02.887Z,7.65
2023-03-30T19:07:05.728Z,7.61
2023-03-30T19:12:10.112Z,7.55
2023-03-30T19:17:12.034Z,7.60
2023-03-30T19:22:14.076Z,7.59
2023-03-30T19:27:15.886Z,7.48
2023-03-30T19:32:19.651Z,7.50
2023-03-30T19:37:21.756Z,7.64
2023-03-30T19:42:23.638Z,7.72
2023-03-30T19:47:28.889Z,7.77
2023-03-30T19:52:31.467Z,7.73
2023-03-30T19:57:33.362Z,7.66
2023-03-30T20:02:35.387Z,7.60
2023-03-30T20:07:37.763Z,7.63
2023-03-30T20:12:39.797Z,7.56
2023-03-30T20:17:42.132Z,7.65
2023-03-30T20:22:44.618Z,7.80
2023-03-30T20:27:46.842Z,7.80
2023-03-30T20:33:03.772Z,7.83
2023-03-30T20:38:08.559Z,7.80
2023-03-30T20:43:10.736Z,7.69
2023-03-30T20:48:32.825Z,7.73
2023-03-30T20:53:35.803Z,7.94
2023-03-30T20:58:38.889Z,7.97
2023-03-30T21:03:44.300Z,8.02
2023-03-30T21:08:46.138Z,7.96
2023-03-30T21:13:47.920Z,7.94
2023-03-30T21:18:50.564Z,7.91
2023-03-30T21:23:52.423Z,7.99
2023-03-30T21:28:54.245Z,8.10
2023-03-30T21:33:56.247Z,8.11
2023-03-30T21:38:59.477Z,8.12
2023-03-30T21:44:01.437Z,8.14
2023-03-30T21:49:03.415Z,8.17
2023-03-30T21:54:05.727Z,8.18
2023-03-30T21:59:07.977Z,8.19
2023-03-30T22:04:09.884Z,8.19
2023-03-30T22:09:13.908Z,8.18
2023-03-30T22:14:15.771Z,8.13
2023-03-30T22:19:19.045Z,8.00
2023-03-30T22:24:20.910Z,8.07
2023-03-30T22:29:23.345Z,8.11
2023-03-30T22:34:25.746Z,8.08
2023-03-30T22:39:28.069Z,8.10
2023-03-30T22:44:29.892Z,8.20
2023-03-30T22:49:31.675Z,8.22
2023-03-30T22:54:33.785Z,8.23
2023-03-30T22:59:35.738Z,8.21
2023-03-30T23:04:39.908Z,8.20
2023-03-30T23:09:47.522Z,8.11
2023-03-30T23:14:49.360Z,8.14
2023-03-30T23:19:55.744Z,8.20
2023-03-30T23:24:57.569Z,8.28
2023-03-30T23:29:59.454Z,8.34
2023-03-30T23:35:02.237Z,8.39
2023-03-30T23:40:07.583Z,8.41
2023-03-30T23:45:09.811Z,8.53
2023-03-30T23:50:11.664Z,8.62
2023-03-30T23:55:13.748Z,8.75
